Time;durP1;ratioP1;P1;durP2;ratioP2;P2;SDS_P1;SDS_P2;PMS_P1;PMS_P2;Temp;Humidity;BMP_temperature;BMP_pressure;BME280_temperature;BME280_humidity;BME280_pressure;Samples;Min_cycle;Max_cycle;Signal;HPM_P1;HPM_P2
2022/10/08 00:01:31;;;;;;;18.40;13.10;;;;;;;11.04;75.48;100470.72;103721;1281;96705;-81
2022/10/08 00:04:00;;;;;;;19.20;13.40;;;;;;;11.04;75.58;100468.64;104774;1288;97164;-81
2022/10/08 00:06:31;;;;;;;17.80;12.80;;;;;;;11.04;75.57;100463.23;103782;1282;138267;-78
2022/10/08 00:09:03;;;;;;;20.40;13.30;;;;;;;11.04;75.64;100461.32;103856;1288;107000;-83
2022/10/08 00:11:34;;;;;;;27.80;14.00;;;;;;;11.04;75.64;100456.80;103686;1281;138455;-81
2022/10/08 00:14:04;;;;;;;16.90;13.30;;;;;;;11.03;75.59;100450.20;103807;1288;96483;-82
2022/10/08 00:16:35;;;;;;;17.20;12.60;;;;;;;11.03;75.74;100446.39;103841;1281;95754;-79
2022/10/08 00:19:06;;;;;;;19.70;13.20;;;;;;;11.02;75.60;100442.40;103765;1288;138140;-81
2022/10/08 00:21:36;;;;;;;18.10;13.40;;;;;;;11.02;75.75;100438.60;103863;1292;107066;-81
2022/10/08 00:24:08;;;;;;;17.00;12.80;;;;;;;11.01;75.73;100437.75;103797;1296;138928;-81
2022/10/08 00:26:37;;;;;;;20.60;13.20;;;;;;;11.01;75.77;100432.72;103896;1275;96460;-80
2022/10/08 00:29:13;;;;;;;19.60;13.30;;;;;;;10.99;75.72;100434.35;103741;1289;138365;-79
2022/10/08 00:31:45;;;;;;;22.10;13.10;;;;;;;10.98;75.80;100424.82;103836;1295;110756;-81
2022/10/08 00:34:17;;;;;;;23.60;12.90;;;;;;;10.96;75.89;100422.08;104581;1296;108871;-80
2022/10/08 00:36:49;;;;;;;22.10;13.40;;;;;;;10.96;75.92;100421.58;103900;1281;137310;-80
2022/10/08 00:39:20;;;;;;;21.10;13.10;;;;;;;10.94;75.99;100420.02;103824;1289;96456;-81
2022/10/08 00:41:51;;;;;;;19.50;13.00;;;;;;;10.93;76.09;100417.11;103711;1287;138394;-81
2022/10/08 00:44:53;;;;;;;19.00;12.60;;;;;;;10.90;76.16;100412.16;103746;1289;109619;-79
2022/10/08 00:47:31;;;;;;;16.60;12.30;;;;;;;10.87;76.11;100407.88;103754;1288;139008;-80
2022/10/08 00:50:04;;;;;;;19.10;13.50;;;;;;;10.85;76.15;100402.75;103891;1288;107028;-80
2022/10/08 00:52:38;;;;;;;19.30;13.50;;;;;;;10.83;76.29;100401.06;103864;1296;96482;-81
2022/10/08 00:55:08;;;;;;;22.10;13.60;;;;;;;10.81;76.45;100401.48;103749;1291;138021;-79
2022/10/08 00:57:38;;;;;;;17.60;12.80;;;;;;;10.79;76.48;100396.52;103799;1291;109862;-80
2022/10/08 01:00:12;;;;;;;19.40;13.90;;;;;;;10.77;76.72;100393.26;103704;1288;140232;-80
2022/10/08 01:02:40;;;;;;;19.90;13.50;;;;;;;10.75;76.59;100388.42;103840;1288;107124;-82
2022/10/08 01:05:12;;;;;;;26.50;14.30;;;;;;;10.74;76.68;100382.56;103716;1288;141018;-79
2022/10/08 01:07:47;;;;;;;18.70;13.20;;;;;;;10.72;76.76;100381.58;103844;1280;97000;-81
2022/10/08 01:10:25;;;;;;;20.30;13.60;;;;;;;10.69;76.87;100371.92;103844;1287;109419;-80
2022/10/08 01:13:06;;;;;;;17.60;14.00;;;;;;;10.69;76.88;100374.38;103786;1289;140042;-81
2022/10/08 01:15:40;;;;;;;21.60;13.50;;;;;;;10.67;76.93;100367.13;103788;1288;108359;-80
2022/10/08 01:18:17;;;;;;;17.90;13.60;;;;;;;10.66;76.87;100366.64;103662;1289;138513;-82
2022/10/08 01:20:56;;;;;;;22.00;14.10;;;;;;;10.65;77.06;100366.15;103787;1287;96741;-80
2022/10/08 01:23:50;;;;;;;21.70;13.50;;;;;;;10.64;77.11;100366.89;103623;1297;140473;-81
2022/10/08 01:26:35;;;;;;;22.90;13.30;;;;;;;10.63;77.28;100366.58;103797;1288;107533;-80
2022/10/08 01:29:12;;;;;;;20.10;14.30;;;;;;;10.61;77.37;100359.67;103689;1288;138867;-80
2022/10/08 01:31:44;;;;;;;22.00;14.30;;;;;;;10.60;77.56;100354.31;104124;1288;96550;-80
2022/10/08 01:34:20;;;;;;;26.90;14.90;;;;;;;10.59;77.45;100348.59;103805;1291;96487;-82
2022/10/08 01:36:53;;;;;;;18.90;13.90;;;;;;;10.57;77.55;100339.77;103655;1291;139370;-81
2022/10/08 01:39:25;;;;;;;19.20;13.70;;;;;;;10.58;77.84;100342.52;103860;1294;107513;-80
2022/10/08 01:41:55;;;;;;;17.90;14.80;;;;;;;10.58;77.71;100335.58;103717;1288;139389;-80
2022/10/08 01:44:29;;;;;;;20.80;14.10;;;;;;;10.57;77.63;100334.73;103849;1294;96633;-81
2022/10/08 01:47:00;;;;;;;19.40;14.30;;;;;;;10.55;77.68;100326.98;103659;1288;138846;-78
2022/10/08 01:49:37;;;;;;;22.10;14.00;;;;;;;10.53;77.78;100326.72;103842;1281;109092;-79
2022/10/08 01:52:11;;;;;;;19.10;14.10;;;;;;;10.50;77.72;100327.99;103805;1289;106863;-80
2022/10/08 01:54:44;;;;;;;21.70;14.30;;;;;;;10.47;77.80;100332.09;103738;1288;138342;-80
2022/10/08 01:57:13;;;;;;;20.40;14.60;;;;;;;10.44;77.97;100328.37;103724;1288;96458;-78
2022/10/08 01:59:48;;;;;;;20.20;13.90;;;;;;;10.42;78.00;100324.10;103754;1288;138307;-79
2022/10/08 02:02:20;;;;;;;22.20;15.60;;;;;;;10.40;78.08;100317.19;103832;1288;110161;-80
2022/10/08 02:04:50;;;;;;;18.80;14.90;;;;;;;10.39;78.31;100321.23;103704;1295;138728;-79
2022/10/08 02:07:21;;;;;;;20.60;14.20;;;;;;;10.38;78.31;100321.96;103762;1279;107169;-81
2022/10/08 02:09:53;;;;;;;20.10;14.60;;;;;;;10.36;78.39;100319.05;103819;1294;96438;-80
2022/10/08 02:12:22;;;;;;;23.80;14.60;;;;;;;10.35;78.57;100321.16;104210;1288;138433;-81
2022/10/08 02:14:52;;;;;;;21.80;14.80;;;;;;;10.33;78.67;100320.73;103792;1295;109388;-80
2022/10/08 02:17:38;;;;;;;21.60;15.30;;;;;;;10.32;78.57;100319.19;103929;1281;138476;-81
2022/10/08 02:20:15;;;;;;;19.70;14.70;;;;;;;10.30;78.59;100320.80;103809;1290;107039;-78
2022/10/08 02:22:52;;;;;;;20.40;14.30;;;;;;;10.30;78.76;100320.63;103972;1282;96473;-76
2022/10/08 02:25:23;;;;;;;;;;;;;;;10.29;79.00;100316.30;103840;1291;96485;-79
2022/10/08 02:27:58;;;;;;;23.00;15.10;;;;;;;10.28;79.13;100310.77;103820;1295;108994;-81
2022/10/08 02:30:34;;;;;;;18.40;14.30;;;;;;;10.27;79.14;100310.09;103786;1281;138432;-79
2022/10/08 02:33:09;;;;;;;21.30;15.90;;;;;;;10.28;79.08;100304.88;103812;1291;108706;-78
2022/10/08 02:35:43;;;;;;;19.20;15.20;;;;;;;10.26;79.24;100300.58;103693;1282;138435;-78
2022/10/08 02:38:16;;;;;;;23.20;15.70;;;;;;;10.26;79.31;100300.59;103851;1288;96944;-78
2022/10/08 02:40:51;;;;;;;23.50;15.90;;;;;;;10.25;79.37;100299.39;103865;1288;109288;-79
2022/10/08 02:43:25;;;;;;;20.30;15.30;;;;;;;10.24;79.30;100296.48;103838;1285;107777;-80
2022/10/08 02:45:58;;;;;;;21.10;15.50;;;;;;;10.21;79.41;100293.73;103833;1288;106962;-78
2022/10/08 02:48:30;;;;;;;20.80;16.20;;;;;;;10.20;79.43;100290.83;103776;1288;139985;-82
2022/10/08 02:51:05;;;;;;;21.70;16.30;;;;;;;10.17;79.46;100292.27;103847;1288;96389;-80
2022/10/08 02:53:36;;;;;;;22.90;16.40;;;;;;;10.16;79.56;100290.95;103762;1292;138401;-79
2022/10/08 02:56:10;;;;;;;22.20;16.50;;;;;;;10.14;79.55;100293.09;103837;1288;107819;-81
2022/10/08 02:58:41;;;;;;;20.50;16.60;;;;;;;10.12;79.77;100293.15;104195;1282;107470;-79
2022/10/08 03:01:22;;;;;;;24.30;16.40;;;;;;;10.11;79.97;100292.31;103900;1282;138642;-80
2022/10/08 03:03:57;;;;;;;23.10;15.90;;;;;;;10.10;80.03;100286.44;104016;1288;96353;-80
2022/10/08 03:06:28;;;;;;;24.60;16.90;;;;;;;10.08;79.97;100287.19;103749;1289;139158;-79
2022/10/08 03:09:00;;;;;;;24.00;16.00;;;;;;;10.06;80.13;100283.08;103817;1288;108850;-79
2022/10/08 03:11:30;;;;;;;21.40;17.10;;;;;;;10.04;80.20;100284.16;103751;1289;138832;-80
2022/10/08 03:14:02;;;;;;;23.10;16.70;;;;;;;10.03;80.34;100288.02;104350;1289;96180;-81
2022/10/08 03:16:37;;;;;;;22.20;16.30;;;;;;;10.02;80.47;100289.79;103853;1288;96725;-81
2022/10/08 03:19:09;;;;;;;23.10;16.30;;;;;;;10.01;80.64;100287.38;103712;1282;138436;-79
2022/10/08 03:21:39;;;;;;;25.40;16.60;;;;;;;10.00;80.70;100284.10;103779;1284;106082;-81
2022/10/08 03:24:08;;;;;;;22.20;16.20;;;;;;;10.01;80.89;100283.92;103707;1284;138421;-80
2022/10/08 03:26:38;;;;;;;22.60;16.80;;;;;;;10.00;80.96;100282.36;103849;1287;96557;-79
2022/10/08 03:29:07;;;;;;;24.10;17.30;;;;;;;10.00;80.99;100280.64;103674;1285;138409;-80
2022/10/08 03:31:36;;;;;;;23.70;17.00;;;;;;;10.00;81.05;100274.56;104152;1288;109617;-79
2022/10/08 03:34:05;;;;;;;26.10;17.60;;;;;;;10.00;81.07;100273.87;104020;1285;107384;-79
2022/10/08 03:36:33;;;;;;;21.70;17.10;;;;;;;10.00;81.02;100273.52;103675;1296;138771;-79
2022/10/08 03:39:02;;;;;;;23.30;16.70;;;;;;;10.00;81.03;100273.69;104538;1288;97363;-80
2022/10/08 03:41:31;;;;;;;21.30;17.00;;;;;;;10.00;81.29;100266.20;103734;1289;138873;-80
2022/10/08 03:44:00;;;;;;;22.40;17.40;;;;;;;10.02;81.34;100269.48;103862;1295;109557;-82
2022/10/08 03:46:28;;;;;;;22.50;17.80;;;;;;;10.03;81.39;100270.66;103845;1279;107478;-81
2022/10/08 03:48:57;;;;;;;21.70;17.00;;;;;;;10.04;81.47;100268.70;103735;1289;138802;-82
2022/10/08 03:51:26;;;;;;;22.20;18.00;;;;;;;10.06;81.60;100269.36;103777;1291;96471;-82
2022/10/08 03:53:55;;;;;;;23.20;17.30;;;;;;;10.08;81.65;100268.95;103768;1295;138288;-81
2022/10/08 03:56:24;;;;;;;24.00;18.10;;;;;;;10.09;81.60;100263.53;103899;1287;109361;-80
2022/10/08 03:58:54;;;;;;;27.10;18.00;;;;;;;10.10;81.72;100266.80;103741;1288;138554;-76
2022/10/08 04:01:24;;;;;;;25.90;17.90;;;;;;;10.12;81.68;100259.27;103839;1294;109060;-81
2022/10/08 04:03:53;;;;;;;25.90;17.40;;;;;;;10.13;81.63;100258.88;103833;1289;96595;-80
2022/10/08 04:06:22;;;;;;;20.90;17.30;;;;;;;10.15;81.87;100258.64;103687;1289;138159;-79
2022/10/08 04:08:51;;;;;;;23.10;17.50;;;;;;;10.18;81.93;100262.71;103809;1289;109157;-79
2022/10/08 04:11:19;;;;;;;26.10;18.20;;;;;;;10.21;81.96;100259.36;104189;1294;138900;-81
2022/10/08 04:13:48;;;;;;;25.00;18.20;;;;;;;10.23;81.93;100259.13;103820;1288;107958;-79
2022/10/08 04:16:18;;;;;;;23.60;18.10;;;;;;;10.26;82.04;100256.27;104043;1295;96487;-83
2022/10/08 04:18:47;;;;;;;24.00;17.50;;;;;;;10.30;82.14;100258.23;103745;1288;138849;-79
2022/10/08 04:21:18;;;;;;;22.00;17.10;;;;;;;10.33;82.01;100256.39;103905;1287;110060;-79
2022/10/08 04:23:49;;;;;;;24.70;18.10;;;;;;;10.37;82.12;100256.45;103783;1288;138490;-79
2022/10/08 04:26:17;;;;;;;24.40;17.60;;;;;;;10.40;82.17;100259.48;104283;1294;106585;-78
2022/10/08 04:28:47;;;;;;;23.80;17.30;;;;;;;10.44;82.18;100256.25;103874;1288;96472;-80
2022/10/08 04:31:20;;;;;;;22.30;17.90;;;;;;;10.47;82.28;100254.58;103813;1289;138134;-80
2022/10/08 04:33:51;;;;;;;22.30;17.60;;;;;;;10.50;82.09;100254.12;103822;1288;109502;-79
2022/10/08 04:36:22;;;;;;;22.40;17.90;;;;;;;10.53;82.13;100253.32;103746;1295;138343;-79
2022/10/08 04:38:51;;;;;;;26.30;17.20;;;;;;;10.55;82.08;100250.31;103843;1289;109010;-78
2022/10/08 04:41:22;;;;;;;22.10;16.50;;;;;;;10.57;82.14;100253.01;103724;1289;138968;-79
2022/10/08 04:43:52;;;;;;;22.30;17.60;;;;;;;10.60;82.05;100245.81;103819;1281;96562;-81
2022/10/08 04:46:21;;;;;;;21.60;17.10;;;;;;;10.63;82.04;100245.55;103843;1281;110582;-79
2022/10/08 04:48:52;;;;;;;22.90;17.10;;;;;;;10.65;82.17;100244.77;103696;1288;138967;-80
2022/10/08 04:51:22;;;;;;;22.70;16.60;;;;;;;10.67;82.20;100244.52;103765;1291;108799;-79
2022/10/08 04:53:52;;;;;;;22.40;17.20;;;;;;;10.70;82.21;100245.48;103727;1285;138393;-81
2022/10/08 04:56:23;;;;;;;24.20;17.80;;;;;;;10.73;82.33;100239.30;103863;1286;96507;-80
2022/10/08 04:58:53;;;;;;;28.30;18.10;;;;;;;10.76;82.24;100240.58;103854;1288;109701;-78
2022/10/08 05:01:24;;;;;;;29.10;18.20;;;;;;;10.78;82.29;100241.05;103868;1289;107963;-80
2022/10/08 05:03:55;;;;;;;26.60;18.90;;;;;;;10.81;82.30;100242.36;103781;1291;107840;-80
2022/10/08 05:06:27;;;;;;;25.60;18.40;;;;;;;10.83;82.28;100243.30;103957;1292;139814;-80
2022/10/08 05:08:58;;;;;;;25.30;18.50;;;;;;;10.87;82.30;100240.73;103768;1285;96461;-80
2022/10/08 05:11:28;;;;;;;24.20;17.80;;;;;;;10.90;82.47;100239.59;103664;1281;140271;-80
2022/10/08 05:13:58;;;;;;;26.70;18.80;;;;;;;10.94;82.55;100236.34;103825;1288;107706;-79
2022/10/08 05:16:27;;;;;;;22.30;17.50;;;;;;;10.97;82.49;100234.67;103722;1295;107144;-81
2022/10/08 05:18:56;;;;;;;22.30;17.30;;;;;;;11.01;82.50;100237.14;103635;1294;138467;-81
2022/10/08 05:21:27;;;;;;;28.00;19.40;;;;;;;11.06;82.40;100238.55;103750;1280;96469;-78
2022/10/08 05:23:57;;;;;;;22.00;17.40;;;;;;;11.11;82.38;100243.92;103688;1294;138290;-79
2022/10/08 05:26:29;;;;;;;24.20;17.70;;;;;;;11.16;82.42;100242.38;103807;1287;107964;-79
2022/10/08 05:29:18;;;;;;;25.00;18.10;;;;;;;11.22;82.31;100243.04;103692;1289;138541;-81
2022/10/08 05:31:46;;;;;;;23.60;17.70;;;;;;;11.27;82.19;100245.80;103803;1288;96468;-81
2022/10/08 05:34:15;;;;;;;26.30;17.50;;;;;;;11.32;82.06;100245.11;103783;1288;96460;-78
2022/10/08 05:36:45;;;;;;;23.00;17.30;;;;;;;11.40;81.98;100248.65;103665;1295;138393;-78
2022/10/08 05:39:14;;;;;;;23.30;17.60;;;;;;;11.48;81.85;100252.89;103791;1288;108274;-77
2022/10/08 05:41:43;;;;;;;22.90;17.30;;;;;;;11.56;81.82;100251.74;103675;1294;138459;-78
2022/10/08 05:44:12;;;;;;;23.80;17.70;;;;;;;11.70;81.70;100252.10;103823;1294;96419;-78
2022/10/08 05:46:41;;;;;;;24.10;16.20;;;;;;;11.93;81.66;100257.36;103776;1294;96939;-80
2022/10/08 05:49:18;;;;;;;23.10;15.90;;;;;;;12.18;81.22;100254.67;103718;1281;138178;-79
2022/10/08 05:51:47;;;;;;;22.50;15.90;;;;;;;12.43;80.84;100255.61;103954;1288;106577;-79
2022/10/08 05:54:16;;;;;;;19.30;15.10;;;;;;;12.71;80.58;100255.20;103695;1288;137338;-79
2022/10/08 05:56:45;;;;;;;20.30;15.50;;;;;;;13.00;79.93;100258.67;103837;1288;96584;-78
2022/10/08 05:59:18;;;;;;;19.30;15.20;;;;;;;13.24;79.40;100261.38;103702;1295;138926;-79
2022/10/08 06:01:47;;;;;;;18.90;14.80;;;;;;;13.45;78.72;100265.85;103836;1291;109894;-79
2022/10/08 06:04:17;;;;;;;19.00;14.10;;;;;;;13.59;78.18;100269.44;103812;1296;107476;-80
2022/10/08 06:06:47;;;;;;;20.70;14.50;;;;;;;13.68;77.71;100271.70;103669;1292;138483;-81
2022/10/08 06:09:18;;;;;;;21.60;14.10;;;;;;;13.68;77.26;100267.52;103981;1291;96475;-84
2022/10/08 06:11:48;;;;;;;20.10;14.10;;;;;;;13.65;77.05;100268.81;103739;1288;138263;-81
2022/10/08 06:14:18;;;;;;;20.10;15.10;;;;;;;13.60;76.91;100268.67;103808;1294;109183;-80
2022/10/08 06:16:47;;;;;;;21.60;14.70;;;;;;;13.57;76.85;100265.85;103790;1296;108214;-80
2022/10/08 06:19:16;;;;;;;23.30;14.60;;;;;;;13.56;76.81;100264.17;103727;1289;138183;-79
2022/10/08 06:21:45;;;;;;;18.60;14.70;;;;;;;13.55;76.83;100262.80;103793;1289;96465;-80
2022/10/08 06:24:14;;;;;;;21.00;15.00;;;;;;;13.55;76.77;100262.64;103766;1288;138202;-80
2022/10/08 06:26:43;;;;;;;17.50;14.90;;;;;;;13.53;76.73;100261.52;103758;1298;110229;-80
2022/10/08 06:29:15;;;;;;;18.50;15.20;;;;;;;13.51;76.84;100264.59;103684;1295;138705;-79
2022/10/08 06:31:46;;;;;;;18.60;15.20;;;;;;;13.52;76.90;100264.52;103788;1285;106788;-79
2022/10/08 06:34:15;;;;;;;22.20;15.40;;;;;;;13.56;76.80;100265.91;103753;1296;96467;-80
2022/10/08 06:36:44;;;;;;;21.40;14.30;;;;;;;13.58;76.81;100268.08;103698;1288;138911;-79
2022/10/08 06:39:15;;;;;;;21.00;15.20;;;;;;;13.60;76.78;100267.14;103786;1288;109318;-78
2022/10/08 06:41:44;;;;;;;23.50;15.20;;;;;;;13.60;76.70;100271.49;103745;1288;138476;-78
2022/10/08 06:44:14;;;;;;;22.50;15.30;;;;;;;13.60;76.89;100272.89;103762;1285;108680;-79
2022/10/08 06:46:44;;;;;;;21.30;16.30;;;;;;;13.60;76.81;100272.88;103782;1283;96466;-79
2022/10/08 06:49:13;;;;;;;26.50;16.60;;;;;;;13.59;76.93;100273.60;103680;1292;138231;-78
2022/10/08 06:51:42;;;;;;;19.00;15.10;;;;;;;13.60;77.08;100270.41;103774;1288;109464;-78
2022/10/08 06:54:11;;;;;;;23.60;16.20;;;;;;;13.63;77.13;100273.96;103691;1288;138682;-78
2022/10/08 06:56:40;;;;;;;21.20;16.60;;;;;;;13.66;77.06;100275.08;103839;1294;106829;-79
2022/10/08 06:59:09;;;;;;;24.40;16.50;;;;;;;13.68;77.09;100276.73;103719;1289;140306;-77
2022/10/08 07:01:38;;;;;;;24.20;16.70;;;;;;;13.71;77.16;100277.29;103844;1291;97105;-78
2022/10/08 07:04:10;;;;;;;23.10;16.50;;;;;;;13.74;77.21;100278.54;103862;1288;111064;-79
2022/10/08 07:06:38;;;;;;;24.50;17.00;;;;;;;13.79;77.20;100276.77;103774;1294;138359;-78
2022/10/08 07:09:09;;;;;;;20.40;16.40;;;;;;;13.82;77.24;100275.22;104068;1296;106940;-78
2022/10/08 07:11:38;;;;;;;24.50;16.50;;;;;;;13.85;77.20;100277.90;103798;1294;139556;-78
2022/10/08 07:14:07;;;;;;;26.60;16.10;;;;;;;13.88;77.22;100273.56;103868;1288;96492;-79
2022/10/08 07:16:36;;;;;;;20.40;15.90;;;;;;;13.90;77.34;100275.06;103882;1294;109783;-78
2022/10/08 07:19:05;;;;;;;23.00;16.50;;;;;;;13.93;77.21;100276.50;103735;1289;138595;-77
2022/10/08 07:21:34;;;;;;;21.70;16.40;;;;;;;13.97;77.18;100274.90;103806;1288;107725;-78
2022/10/08 07:24:04;;;;;;;22.00;16.00;;;;;;;14.01;77.21;100270.16;103704;1295;138676;-79
2022/10/08 07:26:34;;;;;;;21.40;15.90;;;;;;;14.05;77.20;100270.85;103842;1285;96476;-78
2022/10/08 07:29:07;;;;;;;20.20;15.90;;;;;;;14.10;77.15;100266.61;103718;1290;139361;-77
2022/10/08 07:31:38;;;;;;;20.80;15.70;;;;;;;14.15;77.08;100264.08;103880;1296;107477;-78
2022/10/08 07:34:10;;;;;;;23.90;16.10;;;;;;;14.22;77.09;100263.98;103776;1288;108637;-80
2022/10/08 07:36:39;;;;;;;20.30;15.30;;;;;;;14.26;76.97;100264.83;103717;1288;138493;-79
2022/10/08 07:39:12;;;;;;;23.30;14.70;;;;;;;14.32;76.93;100261.55;103806;1288;96541;-78
2022/10/08 07:41:41;;;;;;;26.20;16.20;;;;;;;14.39;77.07;100262.97;103840;1292;140068;-79
2022/10/08 07:44:14;;;;;;;19.20;15.50;;;;;;;14.47;76.92;100259.48;103818;1289;107352;-79
2022/10/08 07:46:45;;;;;;;19.40;14.30;;;;;;;14.54;76.86;100256.86;103812;1292;107466;-79
2022/10/08 07:49:15;;;;;;;20.20;14.00;;;;;;;14.62;76.80;100251.41;103655;1281;138179;-78
2022/10/08 07:51:45;;;;;;;23.60;15.00;;;;;;;14.69;76.56;100254.02;103764;1289;96473;-79
2022/10/08 07:54:16;;;;;;;21.40;14.40;;;;;;;14.74;76.36;100249.07;103618;1287;139962;-79
2022/10/08 07:56:46;;;;;;;16.80;14.20;;;;;;;14.80;76.37;100251.36;103798;1287;108734;-80
2022/10/08 07:59:15;;;;;;;20.80;14.50;;;;;;;14.86;76.22;100250.88;103669;1288;139739;-79
2022/10/08 08:01:45;;;;;;;17.20;14.40;;;;;;;14.93;76.08;100249.00;103835;1284;96471;-79
2022/10/08 08:04:14;;;;;;;18.20;14.10;;;;;;;15.00;75.92;100244.96;103750;1289;96487;-79
2022/10/08 08:06:47;;;;;;;16.60;14.40;;;;;;;15.07;75.89;100244.41;103747;1294;139952;-79
2022/10/08 08:09:17;;;;;;;21.30;13.70;;;;;;;15.21;75.89;100239.88;103845;1291;108579;-78
2022/10/08 08:11:49;;;;;;;18.60;14.10;;;;;;;15.35;75.44;100241.77;103707;1294;138570;-79
2022/10/08 08:14:19;;;;;;;17.00;13.50;;;;;;;15.46;75.26;100240.50;103833;1281;96468;-79
2022/10/08 08:16:48;;;;;;;20.00;13.30;;;;;;;15.60;74.78;100242.20;103826;1289;96587;-80
2022/10/08 08:19:17;;;;;;;18.70;13.20;;;;;;;15.70;74.52;100241.70;103717;1294;137316;-79
2022/10/08 08:21:46;;;;;;;19.60;13.10;;;;;;;15.81;74.35;100237.60;103863;1285;107367;-78
2022/10/08 08:24:15;;;;;;;16.50;12.70;;;;;;;15.92;74.15;100238.22;103738;1288;138658;-78
2022/10/08 08:26:44;;;;;;;20.70;12.40;;;;;;;16.05;74.01;100233.67;103802;1288;96443;-79
2022/10/08 08:29:14;;;;;;;17.90;12.90;;;;;;;16.24;73.91;100237.51;103730;1295;138544;-78
2022/10/08 08:31:46;;;;;;;15.10;11.90;;;;;;;16.47;73.48;100238.12;104077;1289;110107;-79
2022/10/08 08:34:17;;;;;;;17.90;12.30;;;;;;;16.64;72.72;100232.81;103871;1296;107599;-79
2022/10/08 08:36:48;;;;;;;14.80;11.60;;;;;;;16.87;72.35;100237.48;103708;1288;138567;-79
2022/10/08 08:39:19;;;;;;;16.60;11.40;;;;;;;17.03;71.48;100235.66;104014;1288;96789;-79
2022/10/08 08:42:01;;;;;;;13.90;11.30;;;;;;;17.11;71.07;100235.51;103860;1285;138438;-80
2022/10/08 08:44:33;;;;;;;15.50;11.30;;;;;;;17.33;71.06;100231.75;103954;1288;110168;-81
2022/10/08 08:47:11;;;;;;;16.60;10.40;;;;;;;17.59;70.02;100229.63;103958;1294;141156;-78
2022/10/08 08:49:44;;;;;;;13.60;10.50;;;;;;;17.97;69.47;100220.25;103790;1294;106661;-79
2022/10/08 08:52:16;;;;;;;15.50;10.20;;;;;;;18.39;68.87;100216.80;103820;1288;96560;-80
2022/10/08 08:54:48;;;;;;;15.20;11.20;;;;;;;18.58;67.82;100215.19;103871;1294;139131;-78
2022/10/08 08:57:31;;;;;;;13.00;10.00;;;;;;;18.85;67.24;100213.60;103813;1294;109335;-79
2022/10/08 09:00:04;;;;;;;14.80;10.10;;;;;;;19.19;66.62;100209.23;103812;1294;140542;-80
2022/10/08 09:02:38;;;;;;;10.60;9.10;;;;;;;19.26;65.61;100213.12;103785;1289;107956;-81
2022/10/08 09:05:11;;;;;;;12.00;9.10;;;;;;;19.48;65.19;100215.16;103832;1295;138118;-79
2022/10/08 09:07:45;;;;;;;14.90;9.60;;;;;;;19.85;64.88;100215.93;103803;1289;96420;-79
2022/10/08 09:10:18;;;;;;;11.40;9.50;;;;;;;20.21;64.55;100206.43;103884;1294;111147;-78
2022/10/08 09:12:50;;;;;;;15.30;9.50;;;;;;;20.46;63.97;100202.51;103840;1294;137632;-78
2022/10/08 09:15:22;;;;;;;15.00;9.10;;;;;;;20.70;63.57;100200.73;104119;1295;107383;-81
2022/10/08 09:17:52;;;;;;;10.90;9.10;;;;;;;20.84;62.33;100204.44;103774;1292;137649;-80
2022/10/08 09:20:24;;;;;;;13.30;9.30;;;;;;;20.79;61.34;100206.41;103819;1294;96488;-80
2022/10/08 09:22:54;;;;;;;15.50;9.00;;;;;;;20.88;61.37;100207.98;103801;1289;109886;-80
2022/10/08 09:25:25;;;;;;;12.80;8.70;;;;;;;21.13;61.38;100209.98;103810;1288;108350;-78
2022/10/08 09:27:56;;;;;;;15.00;8.90;;;;;;;21.35;60.56;100213.46;103794;1285;108614;-81
2022/10/08 09:30:36;;;;;;;12.70;8.50;;;;;;;21.36;59.89;100213.34;103759;1294;139321;-80
2022/10/08 09:33:20;;;;;;;13.70;8.90;;;;;;;21.47;59.93;100213.60;103802;1288;96472;-79
2022/10/08 09:35:50;;;;;;;15.30;9.00;;;;;;;21.41;59.78;100210.71;103792;1289;137569;-78
2022/10/08 09:38:22;;;;;;;11.50;8.50;;;;;;;21.42;59.42;100207.10;103822;1290;108165;-81
2022/10/08 09:41:01;;;;;;;12.90;8.50;;;;;;;21.33;59.01;100202.77;103821;1288;107197;-78
2022/10/08 09:43:30;;;;;;;12.40;8.60;;;;;;;21.31;58.95;100200.83;103771;1292;96476;-80
2022/10/08 09:46:03;;;;;;;11.80;9.40;;;;;;;21.30;58.80;100200.39;103862;1294;96404;-79
2022/10/08 09:48:32;;;;;;;12.80;8.60;;;;;;;21.37;58.72;100197.23;103714;1294;137429;-81
2022/10/08 09:51:04;;;;;;;11.90;8.50;;;;;;;21.34;58.66;100195.48;103794;1286;107857;-80
2022/10/08 09:53:39;;;;;;;12.90;8.70;;;;;;;21.36;58.88;100189.17;103712;1284;137713;-79
2022/10/08 09:56:09;;;;;;;11.10;8.80;;;;;;;21.39;58.86;100188.16;103996;1294;96465;-80
2022/10/08 09:58:49;;;;;;;16.70;9.50;;;;;;;21.44;58.46;100183.02;103800;1295;96473;-80
2022/10/08 10:01:19;;;;;;;14.30;9.20;;;;;;;21.40;58.07;100183.89;103683;1292;137619;-81
2022/10/08 10:03:54;;;;;;;14.50;8.80;;;;;;;21.37;58.35;100183.27;103846;1294;106132;-80
2022/10/08 10:06:32;;;;;;;11.70;7.90;;;;;;;21.36;57.94;100184.73;103685;1294;138894;-80
2022/10/08 10:09:11;;;;;;;13.30;8.30;;;;;;;21.30;58.12;100183.05;103763;1291;96553;-79
2022/10/08 10:11:46;;;;;;;12.00;8.30;;;;;;;21.27;58.28;100187.37;103697;1284;137863;-78
2022/10/08 10:14:20;;;;;;;19.30;8.70;;;;;;;21.29;58.34;100184.38;103864;1288;112125;-78
2022/10/08 10:16:59;;;;;;;12.10;8.20;;;;;;;21.32;58.36;100185.70;103819;1294;108204;-81
2022/10/08 10:19:32;;;;;;;14.70;8.80;;;;;;;21.26;57.77;100180.54;103776;1278;107505;-79
2022/10/08 10:22:05;;;;;;;10.00;7.50;;;;;;;21.10;57.66;100181.05;103758;1286;96466;-79
2022/10/08 10:24:47;;;;;;;9.90;8.20;;;;;;;20.91;57.70;100182.70;103652;1294;139124;-80
2022/10/08 10:27:24;;;;;;;11.10;8.80;;;;;;;20.71;58.03;100177.86;104001;1296;109240;-79
2022/10/08 10:30:02;;;;;;;13.10;8.50;;;;;;;20.60;58.31;100173.21;103734;1293;136717;-80
2022/10/08 10:32:37;;;;;;;11.20;8.80;;;;;;;20.48;58.60;100169.52;103870;1287;108293;-80
2022/10/08 10:35:14;;;;;;;13.80;8.70;;;;;;;20.40;58.79;100163.38;103811;1288;137709;-78
2022/10/08 10:37:50;;;;;;;20.10;8.80;;;;;;;20.34;59.17;100162.23;103795;1287;96405;-79
2022/10/08 10:40:31;;;;;;;11.70;8.80;;;;;;;20.27;59.10;100159.39;103828;1289;110141;-79
2022/10/08 10:43:31;;;;;;;11.40;9.30;;;;;;;20.15;59.26;100162.35;103838;1296;137834;-80
2022/10/08 10:46:11;;;;;;;15.40;9.20;;;;;;;20.00;59.23;100154.66;103488;1300;107077;-79
2022/10/08 10:48:40;;;;;;;13.00;9.30;;;;;;;19.85;59.68;100148.88;103335;1293;138122;-79
2022/10/08 10:51:24;;;;;;;15.70;9.50;;;;;;;19.73;59.90;100147.59;103436;1300;96978;-78
2022/10/08 10:54:02;;;;;;;14.50;10.30;;;;;;;19.63;60.34;100142.89;103509;1301;137672;-78
2022/10/08 10:56:37;;;;;;;15.50;10.00;;;;;;;19.50;60.39;100143.06;103397;1299;107312;-80
2022/10/08 10:59:40;;;;;;;12.00;10.20;;;;;;;19.38;60.87;100144.45;103425;1300;138259;-78
2022/10/08 11:02:20;;;;;;;15.20;9.90;;;;;;;19.20;60.94;100138.27;103327;1300;99163;-80
2022/10/08 11:05:00;;;;;;;11.70;9.40;;;;;;;19.07;61.28;100139.41;103404;1302;97022;-78
2022/10/08 11:07:46;;;;;;;11.30;9.30;;;;;;;18.98;61.71;100138.06;103430;1292;111426;-79
2022/10/08 11:10:27;;;;;;;15.60;9.90;;;;;;;18.93;61.89;100133.11;103458;1300;107050;-81
2022/10/08 11:13:07;;;;;;;13.80;10.30;;;;;;;18.90;62.09;100135.13;103284;1292;138361;-78
2022/10/08 11:15:43;;;;;;;13.80;9.80;;;;;;;18.88;62.41;100135.40;103522;1300;97050;-80
2022/10/08 11:18:24;;;;;;;16.80;10.90;;;;;;;18.85;62.44;100132.11;103529;1300;138976;-79
2022/10/08 11:21:15;;;;;;;14.00;10.70;;;;;;;18.83;62.54;100125.86;103446;1292;109934;-79